sensor_id;sensor_type;location;lat;lon;timestamp;P1;durP1;ratioP1;P2;durP2;ratioP2
22778;SDS011;11556;51.194;3.800;2024-03-23T00:55:27;49.17;;;12.27;;
22778;SDS011;11556;51.194;3.800;2024-03-23T00:57:52;50.58;;;11.88;;
22778;SDS011;11556;51.194;3.800;2024-03-23T01:00:18;46.17;;;11.18;;
22778;SDS011;11556;51.194;3.800;2024-03-23T01:02:44;38.53;;;9.93;;
22778;SDS011;11556;51.194;3.800;2024-03-23T01:05:09;40.80;;;9.98;;
22778;SDS011;11556;51.194;3.800;2024-03-23T01:07:35;37.33;;;10.23;;
22778;SDS011;11556;51.194;3.800;2024-03-23T01:10:01;33.17;;;9.25;;
22778;SDS011;11556;51.194;3.800;2024-03-23T01:12:26;37.53;;;9.27;;
22778;SDS011;11556;51.194;3.800;2024-03-23T01:14:52;35.33;;;8.73;;
22778;SDS011;11556;51.194;3.800;2024-03-23T01:17:18;35.97;;;7.82;;
22778;SDS011;11556;51.194;3.800;2024-03-23T01:19:43;30.67;;;7.43;;
22778;SDS011;11556;51.194;3.800;2024-03-23T01:22:09;34.85;;;8.15;;
22778;SDS011;11556;51.194;3.800;2024-03-23T01:24:35;31.10;;;7.50;;
22778;SDS011;11556;51.194;3.800;2024-03-23T01:27:01;35.42;;;8.43;;
22778;SDS011;11556;51.194;3.800;2024-03-23T01:29:26;28.65;;;6.85;;
22778;SDS011;11556;51.194;3.800;2024-03-23T01:31:52;25.73;;;6.32;;
22778;SDS011;11556;51.194;3.800;2024-03-23T01:34:18;32.65;;;6.55;;
22778;SDS011;11556;51.194;3.800;2024-03-23T01:36:45;30.05;;;6.45;;
22778;SDS011;11556;51.194;3.800;2024-03-23T01:39:11;29.33;;;5.95;;
22778;SDS011;11556;51.194;3.800;2024-03-23T01:41:37;24.50;;;5.65;;
22778;SDS011;11556;51.194;3.800;2024-03-23T01:44:07;29.45;;;5.90;;
22778;SDS011;11556;51.194;3.800;2024-03-23T01:46:33;21.10;;;5.30;;
22778;SDS011;11556;51.194;3.800;2024-03-23T01:48:59;24.23;;;5.30;;
22778;SDS011;11556;51.194;3.800;2024-03-23T01:51:25;20.67;;;5.05;;
22778;SDS011;11556;51.194;3.800;2024-03-23T01:53:52;19.73;;;5.05;;
22778;SDS011;11556;51.194;3.800;2024-03-23T01:56:19;20.67;;;4.88;;
22778;SDS011;11556;51.194;3.800;2024-03-23T01:58:45;26.98;;;5.45;;
22778;SDS011;11556;51.194;3.800;2024-03-23T02:01:11;24.08;;;4.75;;
22778;SDS011;11556;51.194;3.800;2024-03-23T02:03:37;24.52;;;5.28;;
22778;SDS011;11556;51.194;3.800;2024-03-23T02:06:02;23.83;;;4.40;;
22778;SDS011;11556;51.194;3.800;2024-03-23T02:08:28;21.67;;;4.72;;
22778;SDS011;11556;51.194;3.800;2024-03-23T02:10:55;17.83;;;4.15;;
22778;SDS011;11556;51.194;3.800;2024-03-23T02:13:21;15.32;;;4.03;;
22778;SDS011;11556;51.194;3.800;2024-03-23T02:15:47;19.73;;;4.53;;
22778;SDS011;11556;51.194;3.800;2024-03-23T02:18:13;24.90;;;4.63;;
22778;SDS011;11556;51.194;3.800;2024-03-23T02:20:38;18.95;;;4.35;;
22778;SDS011;11556;51.194;3.800;2024-03-23T02:23:04;19.77;;;4.38;;
22778;SDS011;11556;51.194;3.800;2024-03-23T02:25:33;18.50;;;4.32;;
22778;SDS011;11556;51.194;3.800;2024-03-23T02:27:59;15.80;;;4.22;;
22778;SDS011;11556;51.194;3.800;2024-03-23T02:30:25;19.27;;;4.85;;
22778;SDS011;11556;51.194;3.800;2024-03-23T02:32:51;16.25;;;4.90;;
22778;SDS011;11556;51.194;3.800;2024-03-23T02:35:17;28.35;;;5.75;;
22778;SDS011;11556;51.194;3.800;2024-03-23T02:37:43;19.73;;;5.28;;
22778;SDS011;11556;51.194;3.800;2024-03-23T02:40:08;16.40;;;5.22;;
22778;SDS011;11556;51.194;3.800;2024-03-23T02:42:34;13.60;;;4.72;;
22778;SDS011;11556;51.194;3.800;2024-03-23T02:45:00;22.20;;;5.30;;
22778;SDS011;11556;51.194;3.800;2024-03-23T02:47:25;21.42;;;5.28;;
22778;SDS011;11556;51.194;3.800;2024-03-23T02:49:51;15.88;;;4.90;;
22778;SDS011;11556;51.194;3.800;2024-03-23T02:52:16;20.23;;;5.68;;
22778;SDS011;11556;51.194;3.800;2024-03-23T02:54:42;17.88;;;5.45;;
22778;SDS011;11556;51.194;3.800;2024-03-23T02:57:10;14.90;;;5.25;;
22778;SDS011;11556;51.194;3.800;2024-03-23T02:59:36;17.60;;;5.05;;
22778;SDS011;11556;51.194;3.800;2024-03-23T03:02:01;15.02;;;4.70;;
22778;SDS011;11556;51.194;3.800;2024-03-23T03:04:29;15.60;;;4.90;;
22778;SDS011;11556;51.194;3.800;2024-03-23T03:06:55;21.70;;;5.28;;
22778;SDS011;11556;51.194;3.800;2024-03-23T03:09:21;20.27;;;5.45;;
22778;SDS011;11556;51.194;3.800;2024-03-23T03:11:47;23.25;;;5.53;;
22778;SDS011;11556;51.194;3.800;2024-03-23T03:14:12;15.32;;;4.45;;
22778;SDS011;11556;51.194;3.800;2024-03-23T03:16:38;20.73;;;4.90;;
22778;SDS011;11556;51.194;3.800;2024-03-23T03:19:04;20.23;;;4.85;;
22778;SDS011;11556;51.194;3.800;2024-03-23T03:21:29;14.30;;;4.40;;
22778;SDS011;11556;51.194;3.800;2024-03-23T03:23:55;10.15;;;4.13;;
22778;SDS011;11556;51.194;3.800;2024-03-23T03:26:21;19.13;;;4.57;;
22778;SDS011;11556;51.194;3.800;2024-03-23T03:28:47;12.68;;;3.70;;
22778;SDS011;11556;51.194;3.800;2024-03-23T03:31:20;11.15;;;3.50;;
22778;SDS011;11556;51.194;3.800;2024-03-23T03:33:45;17.38;;;3.60;;
22778;SDS011;11556;51.194;3.800;2024-03-23T03:36:13;10.80;;;3.30;;
22778;SDS011;11556;51.194;3.800;2024-03-23T03:38:38;15.40;;;3.42;;
22778;SDS011;11556;51.194;3.800;2024-03-23T03:41:04;16.10;;;3.72;;
22778;SDS011;11556;51.194;3.800;2024-03-23T03:43:31;16.02;;;3.15;;
22778;SDS011;11556;51.194;3.800;2024-03-23T03:45:57;11.70;;;3.53;;
22778;SDS011;11556;51.194;3.800;2024-03-23T03:48:24;14.90;;;3.40;;
22778;SDS011;11556;51.194;3.800;2024-03-23T03:50:50;20.23;;;3.83;;
22778;SDS011;11556;51.194;3.800;2024-03-23T03:53:16;15.20;;;3.00;;
22778;SDS011;11556;51.194;3.800;2024-03-23T03:55:42;15.80;;;3.13;;
22778;SDS011;11556;51.194;3.800;2024-03-23T03:58:07;11.88;;;3.17;;
22778;SDS011;11556;51.194;3.800;2024-03-23T04:00:33;16.60;;;3.50;;
22778;SDS011;11556;51.194;3.800;2024-03-23T04:02:59;15.48;;;3.03;;
22778;SDS011;11556;51.194;3.800;2024-03-23T04:05:25;18.15;;;3.33;;
22778;SDS011;11556;51.194;3.800;2024-03-23T04:07:51;10.80;;;2.95;;
22778;SDS011;11556;51.194;3.800;2024-03-23T04:10:16;14.52;;;2.80;;
22778;SDS011;11556;51.194;3.800;2024-03-23T04:12:43;16.30;;;3.05;;
22778;SDS011;11556;51.194;3.800;2024-03-23T04:15:09;13.90;;;3.55;;
22778;SDS011;11556;51.194;3.800;2024-03-23T04:17:35;19.75;;;2.83;;
22778;SDS011;11556;51.194;3.800;2024-03-23T04:20:01;15.98;;;2.70;;
22778;SDS011;11556;51.194;3.800;2024-03-23T04:22:29;15.60;;;3.05;;
22778;SDS011;11556;51.194;3.800;2024-03-23T04:24:55;11.82;;;3.15;;
22778;SDS011;11556;51.194;3.800;2024-03-23T04:27:21;12.18;;;2.55;;
22778;SDS011;11556;51.194;3.800;2024-03-23T04:29:48;13.90;;;2.83;;
22778;SDS011;11556;51.194;3.800;2024-03-23T04:32:18;16.27;;;2.85;;
22778;SDS011;11556;51.194;3.800;2024-03-23T04:34:44;15.13;;;2.72;;
22778;SDS011;11556;51.194;3.800;2024-03-23T04:37:10;13.75;;;2.58;;
22778;SDS011;11556;51.194;3.800;2024-03-23T04:39:36;11.80;;;2.88;;
22778;SDS011;11556;51.194;3.800;2024-03-23T04:42:02;15.88;;;2.92;;
22778;SDS011;11556;51.194;3.800;2024-03-23T04:44:29;18.35;;;3.28;;
22778;SDS011;11556;51.194;3.800;2024-03-23T04:46:55;19.20;;;2.90;;
22778;SDS011;11556;51.194;3.800;2024-03-23T04:49:22;15.63;;;3.05;;
22778;SDS011;11556;51.194;3.800;2024-03-23T04:51:47;11.70;;;2.70;;
22778;SDS011;11556;51.194;3.800;2024-03-23T04:54:13;15.90;;;2.40;;
22778;SDS011;11556;51.194;3.800;2024-03-23T04:56:39;12.20;;;2.20;;
22778;SDS011;11556;51.194;3.800;2024-03-23T04:59:04;12.95;;;2.88;;
22778;SDS011;11556;51.194;3.800;2024-03-23T05:01:33;16.77;;;3.05;;
22778;SDS011;11556;51.194;3.800;2024-03-23T05:03:58;10.68;;;2.25;;
22778;SDS011;11556;51.194;3.800;2024-03-23T05:06:25;14.23;;;2.80;;
22778;SDS011;11556;51.194;3.800;2024-03-23T05:08:51;13.05;;;2.25;;
22778;SDS011;11556;51.194;3.800;2024-03-23T05:11:17;17.23;;;2.38;;
22778;SDS011;11556;51.194;3.800;2024-03-23T05:13:43;11.27;;;2.40;;
22778;SDS011;11556;51.194;3.800;2024-03-23T05:16:09;15.82;;;2.95;;
22778;SDS011;11556;51.194;3.800;2024-03-23T05:18:35;20.73;;;2.75;;
22778;SDS011;11556;51.194;3.800;2024-03-23T05:21:00;16.15;;;2.45;;
22778;SDS011;11556;51.194;3.800;2024-03-23T05:23:28;14.20;;;2.47;;
22778;SDS011;11556;51.194;3.800;2024-03-23T05:25:54;16.45;;;2.80;;
22778;SDS011;11556;51.194;3.800;2024-03-23T05:28:20;19.45;;;2.70;;
22778;SDS011;11556;51.194;3.800;2024-03-23T05:30:55;19.75;;;2.63;;
22778;SDS011;11556;51.194;3.800;2024-03-23T05:33:24;15.82;;;2.58;;
22778;SDS011;11556;51.194;3.800;2024-03-23T05:35:56;14.27;;;3.15;;
22778;SDS011;11556;51.194;3.800;2024-03-23T05:38:25;18.80;;;2.60;;
22778;SDS011;11556;51.194;3.800;2024-03-23T05:40:54;13.13;;;2.15;;
22778;SDS011;11556;51.194;3.800;2024-03-23T05:43:21;14.38;;;2.42;;
22778;SDS011;11556;51.194;3.800;2024-03-23T05:45:55;14.48;;;2.65;;
22778;SDS011;11556;51.194;3.800;2024-03-23T05:48:22;11.93;;;2.40;;
22778;SDS011;11556;51.194;3.800;2024-03-23T05:50:48;15.65;;;2.40;;
22778;SDS011;11556;51.194;3.800;2024-03-23T05:53:14;17.42;;;2.45;;
22778;SDS011;11556;51.194;3.800;2024-03-23T05:55:41;13.77;;;2.20;;
22778;SDS011;11556;51.194;3.800;2024-03-23T05:58:06;19.58;;;2.30;;
22778;SDS011;11556;51.194;3.800;2024-03-23T06:00:32;20.50;;;2.47;;
22778;SDS011;11556;51.194;3.800;2024-03-23T06:02:58;11.40;;;2.28;;
22778;SDS011;11556;51.194;3.800;2024-03-23T06:05:24;17.30;;;2.83;;
22778;SDS011;11556;51.194;3.800;2024-03-23T06:07:49;17.33;;;2.13;;
22778;SDS011;11556;51.194;3.800;2024-03-23T06:10:15;16.13;;;2.28;;
22778;SDS011;11556;51.194;3.800;2024-03-23T06:12:41;13.85;;;2.28;;
22778;SDS011;11556;51.194;3.800;2024-03-23T06:15:07;10.88;;;1.67;;
22778;SDS011;11556;51.194;3.800;2024-03-23T06:17:35;16.85;;;2.20;;
22778;SDS011;11556;51.194;3.800;2024-03-23T06:20:02;13.25;;;1.98;;
22778;SDS011;11556;51.194;3.800;2024-03-23T06:22:28;11.48;;;2.30;;
22778;SDS011;11556;51.194;3.800;2024-03-23T06:24:53;13.90;;;2.28;;
22778;SDS011;11556;51.194;3.800;2024-03-23T06:27:19;12.15;;;2.13;;
22778;SDS011;11556;51.194;3.800;2024-03-23T06:29:45;11.82;;;2.42;;
22778;SDS011;11556;51.194;3.800;2024-03-23T06:32:10;12.00;;;2.03;;
22778;SDS011;11556;51.194;3.800;2024-03-23T06:34:36;9.50;;;2.10;;
22778;SDS011;11556;51.194;3.800;2024-03-23T06:37:01;10.07;;;1.75;;
22778;SDS011;11556;51.194;3.800;2024-03-23T06:39:28;11.95;;;2.13;;
22778;SDS011;11556;51.194;3.800;2024-03-23T06:41:54;19.25;;;2.75;;
22778;SDS011;11556;51.194;3.800;2024-03-23T06:44:20;12.30;;;2.15;;
22778;SDS011;11556;51.194;3.800;2024-03-23T06:46:46;13.23;;;1.98;;
22778;SDS011;11556;51.194;3.800;2024-03-23T06:49:13;10.77;;;2.10;;
22778;SDS011;11556;51.194;3.800;2024-03-23T06:51:40;10.68;;;2.10;;
22778;SDS011;11556;51.194;3.800;2024-03-23T06:54:05;14.27;;;2.15;;
22778;SDS011;11556;51.194;3.800;2024-03-23T06:56:31;8.63;;;2.25;;
22778;SDS011;11556;51.194;3.800;2024-03-23T06:58:57;10.40;;;2.00;;
22778;SDS011;11556;51.194;3.800;2024-03-23T07:01:23;15.50;;;2.53;;
22778;SDS011;11556;51.194;3.800;2024-03-23T07:03:49;9.80;;;2.28;;
22778;SDS011;11556;51.194;3.800;2024-03-23T07:06:14;11.02;;;2.13;;
22778;SDS011;11556;51.194;3.800;2024-03-23T07:08:40;9.23;;;2.08;;
22778;SDS011;11556;51.194;3.800;2024-03-23T07:11:06;9.75;;;2.83;;
22778;SDS011;11556;51.194;3.800;2024-03-23T07:13:31;13.35;;;2.45;;
22778;SDS011;11556;51.194;3.800;2024-03-23T07:15:58;18.77;;;2.72;;
22778;SDS011;11556;51.194;3.800;2024-03-23T07:18:25;13.90;;;2.30;;
22778;SDS011;11556;51.194;3.800;2024-03-23T07:20:57;11.43;;;2.15;;
22778;SDS011;11556;51.194;3.800;2024-03-23T07:23:23;16.40;;;2.78;;
22778;SDS011;11556;51.194;3.800;2024-03-23T07:25:59;8.15;;;2.22;;
22778;SDS011;11556;51.194;3.800;2024-03-23T07:28:26;12.45;;;2.38;;
22778;SDS011;11556;51.194;3.800;2024-03-23T07:33:44;12.07;;;2.47;;
22778;SDS011;11556;51.194;3.800;2024-03-23T07:36:12;14.35;;;2.72;;
22778;SDS011;11556;51.194;3.800;2024-03-23T07:38:40;12.63;;;2.50;;
22778;SDS011;11556;51.194;3.800;2024-03-23T07:41:13;10.05;;;2.05;;
22778;SDS011;11556;51.194;3.800;2024-03-23T07:43:42;9.57;;;2.10;;
22778;SDS011;11556;51.194;3.800;2024-03-23T07:46:08;13.85;;;2.13;;
22778;SDS011;11556;51.194;3.800;2024-03-23T07:48:34;9.40;;;1.83;;
22778;SDS011;11556;51.194;3.800;2024-03-23T07:53:31;9.38;;;2.00;;
22778;SDS011;11556;51.194;3.800;2024-03-23T07:56:02;7.65;;;1.70;;
22778;SDS011;11556;51.194;3.800;2024-03-23T07:58:28;12.43;;;2.63;;
22778;SDS011;11556;51.194;3.800;2024-03-23T08:00:58;7.70;;;1.45;;
22778;SDS011;11556;51.194;3.800;2024-03-23T08:03:36;9.75;;;1.80;;
22778;SDS011;11556;51.194;3.800;2024-03-23T08:06:15;13.80;;;2.20;;
22778;SDS011;11556;51.194;3.800;2024-03-23T08:08:43;12.57;;;2.50;;
22778;SDS011;11556;51.194;3.800;2024-03-23T08:11:10;10.27;;;1.88;;
22778;SDS011;11556;51.194;3.800;2024-03-23T08:13:36;8.00;;;1.70;;
22778;SDS011;11556;51.194;3.800;2024-03-23T08:16:04;12.88;;;2.10;;
22778;SDS011;11556;51.194;3.800;2024-03-23T08:18:30;10.13;;;1.90;;
22778;SDS011;11556;51.194;3.800;2024-03-23T08:21:03;10.85;;;1.55;;
22778;SDS011;11556;51.194;3.800;2024-03-23T08:23:33;8.18;;;1.60;;
22778;SDS011;11556;51.194;3.800;2024-03-23T08:26:01;7.53;;;1.60;;
22778;SDS011;11556;51.194;3.800;2024-03-23T08:28:31;13.25;;;1.90;;
22778;SDS011;11556;51.194;3.800;2024-03-23T08:30:56;7.45;;;1.70;;
22778;SDS011;11556;51.194;3.800;2024-03-23T08:33:25;10.65;;;1.58;;
22778;SDS011;11556;51.194;3.800;2024-03-23T08:35:58;9.40;;;1.70;;
22778;SDS011;11556;51.194;3.800;2024-03-23T08:38:25;12.77;;;2.08;;
22778;SDS011;11556;51.194;3.800;2024-03-23T08:41:01;9.70;;;1.75;;
22778;SDS011;11556;51.194;3.800;2024-03-23T08:43:28;12.50;;;2.00;;
22778;SDS011;11556;51.194;3.800;2024-03-23T08:46:02;10.60;;;1.80;;
22778;SDS011;11556;51.194;3.800;2024-03-23T08:48:29;10.70;;;1.83;;
22778;SDS011;11556;51.194;3.800;2024-03-23T08:51:05;10.23;;;1.70;;
22778;SDS011;11556;51.194;3.800;2024-03-23T08:53:31;7.75;;;1.33;;
22778;SDS011;11556;51.194;3.800;2024-03-23T08:55:58;8.25;;;1.67;;
22778;SDS011;11556;51.194;3.800;2024-03-23T08:58:25;6.60;;;1.45;;
22778;SDS011;11556;51.194;3.800;2024-03-23T09:00:52;8.70;;;1.30;;
22778;SDS011;11556;51.194;3.800;2024-03-23T09:03:20;9.00;;;1.70;;
22778;SDS011;11556;51.194;3.800;2024-03-23T09:05:46;8.32;;;1.10;;
22778;SDS011;11556;51.194;3.800;2024-03-23T09:08:12;6.55;;;1.20;;
22778;SDS011;11556;51.194;3.800;2024-03-23T09:10:40;7.13;;;1.52;;
22778;SDS011;11556;51.194;3.800;2024-03-23T09:13:06;10.00;;;1.50;;
22778;SDS011;11556;51.194;3.800;2024-03-23T09:15:34;4.95;;;1.30;;
22778;SDS011;11556;51.194;3.800;2024-03-23T09:18:00;11.25;;;1.83;;
22778;SDS011;11556;51.194;3.800;2024-03-23T09:20:26;7.72;;;1.80;;
22778;SDS011;11556;51.194;3.800;2024-03-23T09:22:52;7.45;;;1.65;;
22778;SDS011;11556;51.194;3.800;2024-03-23T09:25:17;13.20;;;2.13;;
22778;SDS011;11556;51.194;3.800;2024-03-23T09:27:45;6.03;;;1.50;;
22778;SDS011;11556;51.194;3.800;2024-03-23T09:30:15;11.10;;;2.05;;
22778;SDS011;11556;51.194;3.800;2024-03-23T09:32:42;11.20;;;2.03;;
22778;SDS011;11556;51.194;3.800;2024-03-23T09:35:08;9.48;;;1.55;;
22778;SDS011;11556;51.194;3.800;2024-03-23T09:37:35;9.85;;;1.65;;
22778;SDS011;11556;51.194;3.800;2024-03-23T09:40:01;7.57;;;2.13;;
22778;SDS011;11556;51.194;3.800;2024-03-23T09:42:27;8.30;;;1.83;;
22778;SDS011;11556;51.194;3.800;2024-03-23T09:44:53;8.57;;;1.50;;
22778;SDS011;11556;51.194;3.800;2024-03-23T09:47:21;11.75;;;2.42;;
22778;SDS011;11556;51.194;3.800;2024-03-23T09:49:48;10.73;;;2.75;;
22778;SDS011;11556;51.194;3.800;2024-03-23T09:52:14;10.40;;;1.90;;
22778;SDS011;11556;51.194;3.800;2024-03-23T09:54:39;9.27;;;1.88;;
22778;SDS011;11556;51.194;3.800;2024-03-23T09:57:05;7.85;;;1.88;;
22778;SDS011;11556;51.194;3.800;2024-03-23T09:59:32;10.20;;;2.05;;
22778;SDS011;11556;51.194;3.800;2024-03-23T10:01:59;9.30;;;1.90;;
22778;SDS011;11556;51.194;3.800;2024-03-23T10:04:36;8.35;;;1.67;;
22778;SDS011;11556;51.194;3.800;2024-03-23T10:07:15;10.07;;;1.83;;
22778;SDS011;11556;51.194;3.800;2024-03-23T10:09:45;8.75;;;1.30;;
22778;SDS011;11556;51.194;3.800;2024-03-23T10:12:16;12.27;;;2.00;;
22778;SDS011;11556;51.194;3.800;2024-03-23T10:14:44;6.18;;;1.23;;
22778;SDS011;11556;51.194;3.800;2024-03-23T10:19:48;7.47;;;1.55;;
22778;SDS011;11556;51.194;3.800;2024-03-23T10:22:18;6.82;;;1.33;;
22778;SDS011;11556;51.194;3.800;2024-03-23T10:24:45;7.90;;;1.38;;
22778;SDS011;11556;51.194;3.800;2024-03-23T10:27:20;7.53;;;1.48;;
22778;SDS011;11556;51.194;3.800;2024-03-23T10:29:47;6.53;;;1.30;;
22778;SDS011;11556;51.194;3.800;2024-03-23T10:32:14;7.00;;;1.17;;
22778;SDS011;11556;51.194;3.800;2024-03-23T10:34:41;6.45;;;1.20;;
22778;SDS011;11556;51.194;3.800;2024-03-23T10:37:07;5.72;;;1.38;;
22778;SDS011;11556;51.194;3.800;2024-03-23T10:39:34;6.38;;;1.60;;
22778;SDS011;11556;51.194;3.800;2024-03-23T10:42:05;7.00;;;1.60;;
22778;SDS011;11556;51.194;3.800;2024-03-23T10:44:35;5.88;;;1.40;;
22778;SDS011;11556;51.194;3.800;2024-03-23T10:47:02;9.57;;;2.65;;
22778;SDS011;11556;51.194;3.800;2024-03-23T10:52:01;3.10;;;1.38;;
22778;SDS011;11556;51.194;3.800;2024-03-23T10:54:29;6.20;;;1.13;;
22778;SDS011;11556;51.194;3.800;2024-03-23T10:57:03;6.47;;;1.38;;
22778;SDS011;11556;51.194;3.800;2024-03-23T10:59:29;8.43;;;1.90;;
22778;SDS011;11556;51.194;3.800;2024-03-23T11:01:57;5.97;;;1.70;;
22778;SDS011;11556;51.194;3.800;2024-03-23T11:04:33;8.95;;;1.52;;
22778;SDS011;11556;51.194;3.800;2024-03-23T11:06:59;11.45;;;2.42;;
22778;SDS011;11556;51.194;3.800;2024-03-23T11:12:16;10.07;;;3.58;;
22778;SDS011;11556;51.194;3.800;2024-03-23T11:14:52;8.00;;;1.63;;
22778;SDS011;11556;51.194;3.800;2024-03-23T11:18:04;8.45;;;1.33;;
22778;SDS011;11556;51.194;3.800;2024-03-23T11:20:33;9.73;;;1.70;;
22778;SDS011;11556;51.194;3.800;2024-03-23T11:22:59;7.72;;;1.75;;
22778;SDS011;11556;51.194;3.800;2024-03-23T11:25:26;6.82;;;1.88;;
22778;SDS011;11556;51.194;3.800;2024-03-23T11:28:11;7.28;;;1.55;;
22778;SDS011;11556;51.194;3.800;2024-03-23T11:30:37;6.45;;;1.80;;
22778;SDS011;11556;51.194;3.800;2024-03-23T11:33:03;6.50;;;1.80;;
22778;SDS011;11556;51.194;3.800;2024-03-23T11:35:39;9.40;;;1.55;;
22778;SDS011;11556;51.194;3.800;2024-03-23T11:38:06;8.40;;;1.65;;
22778;SDS011;11556;51.194;3.800;2024-03-23T11:40:45;8.18;;;1.95;;
22778;SDS011;11556;51.194;3.800;2024-03-23T11:43:13;4.57;;;1.33;;
22778;SDS011;11556;51.194;3.800;2024-03-23T11:45:43;4.50;;;1.20;;
22778;SDS011;11556;51.194;3.800;2024-03-23T11:48:16;5.20;;;1.52;;
22778;SDS011;11556;51.194;3.800;2024-03-23T11:50:44;8.93;;;1.50;;
22778;SDS011;11556;51.194;3.800;2024-03-23T11:55:42;10.15;;;1.67;;
22778;SDS011;11556;51.194;3.800;2024-03-23T11:58:10;9.93;;;1.75;;
22778;SDS011;11556;51.194;3.800;2024-03-23T12:00:36;6.95;;;1.83;;
22778;SDS011;11556;51.194;3.800;2024-03-23T12:03:02;7.07;;;1.50;;
22778;SDS011;11556;51.194;3.800;2024-03-23T12:05:29;9.90;;;1.27;;
22778;SDS011;11556;51.194;3.800;2024-03-23T12:08:14;5.85;;;1.30;;
22778;SDS011;11556;51.194;3.800;2024-03-23T12:11:14;8.50;;;1.55;;
22778;SDS011;11556;51.194;3.800;2024-03-23T12:13:41;7.95;;;1.48;;
22778;SDS011;11556;51.194;3.800;2024-03-23T12:18:35;5.35;;;0.95;;
22778;SDS011;11556;51.194;3.800;2024-03-23T12:21:01;7.10;;;1.30;;
22778;SDS011;11556;51.194;3.800;2024-03-23T12:23:27;8.65;;;1.25;;
22778;SDS011;11556;51.194;3.800;2024-03-23T12:25:53;8.32;;;1.30;;
22778;SDS011;11556;51.194;3.800;2024-03-23T12:28:19;9.60;;;1.88;;
22778;SDS011;11556;51.194;3.800;2024-03-23T12:30:45;5.45;;;1.60;;
22778;SDS011;11556;51.194;3.800;2024-03-23T12:33:10;12.30;;;1.70;;
22778;SDS011;11556;51.194;3.800;2024-03-23T12:35:36;8.88;;;1.92;;
22778;SDS011;11556;51.194;3.800;2024-03-23T12:38:02;10.02;;;1.88;;
22778;SDS011;11556;51.194;3.800;2024-03-23T12:40:28;7.68;;;1.50;;
22778;SDS011;11556;51.194;3.800;2024-03-23T12:42:54;8.52;;;1.48;;
22778;SDS011;11556;51.194;3.800;2024-03-23T12:45:21;5.32;;;1.00;;
22778;SDS011;11556;51.194;3.800;2024-03-23T12:47:47;3.65;;;0.80;;
22778;SDS011;11556;51.194;3.800;2024-03-23T12:50:12;2.28;;;0.45;;
22778;SDS011;11556;51.194;3.800;2024-03-23T12:52:38;8.05;;;0.90;;
22778;SDS011;11556;51.194;3.800;2024-03-23T12:55:04;3.22;;;0.60;;
22778;SDS011;11556;51.194;3.800;2024-03-23T12:57:31;2.47;;;0.82;;
22778;SDS011;11556;51.194;3.800;2024-03-23T12:59:58;4.65;;;1.02;;
22778;SDS011;11556;51.194;3.800;2024-03-23T13:02:24;4.60;;;1.00;;
22778;SDS011;11556;51.194;3.800;2024-03-23T13:04:50;4.25;;;1.13;;
22778;SDS011;11556;51.194;3.800;2024-03-23T13:07:17;3.95;;;0.70;;
22778;SDS011;11556;51.194;3.800;2024-03-23T13:09:43;2.55;;;0.88;;
22778;SDS011;11556;51.194;3.800;2024-03-23T13:12:09;1.33;;;0.50;;
22778;SDS011;11556;51.194;3.800;2024-03-23T13:14:35;3.20;;;0.60;;
22778;SDS011;11556;51.194;3.800;2024-03-23T13:17:01;3.83;;;0.70;;
22778;SDS011;11556;51.194;3.800;2024-03-23T13:19:27;3.05;;;0.82;;
22778;SDS011;11556;51.194;3.800;2024-03-23T13:21:55;4.40;;;1.05;;
22778;SDS011;11556;51.194;3.800;2024-03-23T13:24:28;4.60;;;1.33;;
22778;SDS011;11556;51.194;3.800;2024-03-23T13:26:55;5.30;;;0.80;;
22778;SDS011;11556;51.194;3.800;2024-03-23T13:29:21;8.80;;;1.52;;
22778;SDS011;11556;51.194;3.800;2024-03-23T13:31:47;7.45;;;1.30;;
22778;SDS011;11556;51.194;3.800;2024-03-23T13:34:14;3.83;;;0.95;;
22778;SDS011;11556;51.194;3.800;2024-03-23T13:36:43;5.68;;;1.20;;
22778;SDS011;11556;51.194;3.800;2024-03-23T13:39:10;4.32;;;1.30;;
22778;SDS011;11556;51.194;3.800;2024-03-23T13:41:37;8.18;;;1.40;;
22778;SDS011;11556;51.194;3.800;2024-03-23T13:44:04;5.93;;;1.60;;
22778;SDS011;11556;51.194;3.800;2024-03-23T13:46:35;4.80;;;1.00;;
22778;SDS011;11556;51.194;3.800;2024-03-23T13:49:01;7.07;;;1.33;;
22778;SDS011;11556;51.194;3.800;2024-03-23T13:51:26;7.53;;;1.35;;
22778;SDS011;11556;51.194;3.800;2024-03-23T13:53:55;6.20;;;1.33;;
22778;SDS011;11556;51.194;3.800;2024-03-23T13:56:25;5.72;;;1.02;;
22778;SDS011;11556;51.194;3.800;2024-03-23T13:58:54;7.63;;;1.63;;
22778;SDS011;11556;51.194;3.800;2024-03-23T14:01:23;4.80;;;1.40;;
22778;SDS011;11556;51.194;3.800;2024-03-23T14:03:49;6.22;;;1.42;;
22778;SDS011;11556;51.194;3.800;2024-03-23T14:06:15;6.00;;;1.67;;
22778;SDS011;11556;51.194;3.800;2024-03-23T14:08:41;7.85;;;1.63;;
22778;SDS011;11556;51.194;3.800;2024-03-23T14:11:08;2.28;;;1.00;;
22778;SDS011;11556;51.194;3.800;2024-03-23T14:13:35;4.10;;;1.00;;
22778;SDS011;11556;51.194;3.800;2024-03-23T14:16:01;6.22;;;1.08;;
22778;SDS011;11556;51.194;3.800;2024-03-23T14:18:27;8.27;;;1.27;;
22778;SDS011;11556;51.194;3.800;2024-03-23T14:20:56;6.40;;;1.73;;
22778;SDS011;11556;51.194;3.800;2024-03-23T14:23:26;5.30;;;1.08;;
22778;SDS011;11556;51.194;3.800;2024-03-23T14:25:54;8.18;;;1.40;;
22778;SDS011;11556;51.194;3.800;2024-03-23T14:28:20;7.72;;;1.20;;
22778;SDS011;11556;51.194;3.800;2024-03-23T14:30:47;4.57;;;1.25;;
22778;SDS011;11556;51.194;3.800;2024-03-23T14:33:12;7.25;;;1.02;;
22778;SDS011;11556;51.194;3.800;2024-03-23T14:35:38;4.20;;;1.20;;
22778;SDS011;11556;51.194;3.800;2024-03-23T14:38:04;7.38;;;1.20;;
22778;SDS011;11556;51.194;3.800;2024-03-23T14:40:30;5.60;;;1.33;;
22778;SDS011;11556;51.194;3.800;2024-03-23T14:42:56;3.10;;;1.20;;
22778;SDS011;11556;51.194;3.800;2024-03-23T14:45:22;6.07;;;1.52;;
22778;SDS011;11556;51.194;3.800;2024-03-23T14:47:49;7.18;;;1.70;;
22778;SDS011;11556;51.194;3.800;2024-03-23T14:50:15;5.53;;;1.40;;
22778;SDS011;11556;51.194;3.800;2024-03-23T14:52:44;5.30;;;1.40;;
22778;SDS011;11556;51.194;3.800;2024-03-23T14:55:11;6.95;;;1.42;;
22778;SDS011;11556;51.194;3.800;2024-03-23T14:57:37;5.35;;;1.70;;
22778;SDS011;11556;51.194;3.800;2024-03-23T15:00:05;5.70;;;1.70;;
22778;SDS011;11556;51.194;3.800;2024-03-23T15:02:36;5.60;;;1.42;;
22778;SDS011;11556;51.194;3.800;2024-03-23T15:05:02;4.25;;;1.27;;
22778;SDS011;11556;51.194;3.800;2024-03-23T15:07:29;8.73;;;1.75;;
22778;SDS011;11556;51.194;3.800;2024-03-23T15:09:56;3.92;;;1.58;;
22778;SDS011;11556;51.194;3.800;2024-03-23T15:12:21;5.63;;;1.65;;
22778;SDS011;11556;51.194;3.800;2024-03-23T15:14:47;7.70;;;1.65;;
22778;SDS011;11556;51.194;3.800;2024-03-23T15:17:13;6.00;;;1.67;;
22778;SDS011;11556;51.194;3.800;2024-03-23T15:19:40;6.03;;;1.40;;
22778;SDS011;11556;51.194;3.800;2024-03-23T15:22:07;4.50;;;1.60;;
22778;SDS011;11556;51.194;3.800;2024-03-23T15:24:34;8.20;;;1.92;;
22778;SDS011;11556;51.194;3.800;2024-03-23T15:27:00;3.30;;;1.20;;
22778;SDS011;11556;51.194;3.800;2024-03-23T15:29:27;7.15;;;1.42;;
22778;SDS011;11556;51.194;3.800;2024-03-23T15:31:53;4.50;;;1.10;;
22778;SDS011;11556;51.194;3.800;2024-03-23T15:34:23;6.10;;;1.45;;
22778;SDS011;11556;51.194;3.800;2024-03-23T15:36:49;6.35;;;1.45;;
22778;SDS011;11556;51.194;3.800;2024-03-23T15:39:16;3.70;;;1.30;;
22778;SDS011;11556;51.194;3.800;2024-03-23T15:41:46;5.00;;;1.30;;
22778;SDS011;11556;51.194;3.800;2024-03-23T15:44:12;5.40;;;1.45;;
22778;SDS011;11556;51.194;3.800;2024-03-23T15:46:38;4.40;;;1.40;;
22778;SDS011;11556;51.194;3.800;2024-03-23T15:49:03;2.58;;;0.80;;
22778;SDS011;11556;51.194;3.800;2024-03-23T15:51:30;5.38;;;1.38;;
22778;SDS011;11556;51.194;3.800;2024-03-23T15:53:59;4.28;;;1.13;;